Decoded Metar for KLBO ( in ) (IATA:) | Meteo·Mobile Aviation Weather
aviador You're here:

KLBO Decoded Metar

in
Report Time2018-08-21 06:35:00
UTC Time2018-08-21 07:47:14
Flight Rules Old
Wind270° at 11 kt
W.Decomp.*RWY 18: 11.0 kt RCW
W.Rank270° ranks 14
Current wind is above 270° avg. (7.9)
Visibility8047 m
Phenomena:Rain
Clouds:Overcast 005 Hf
Expected CloudBase > 400 ft AGL from Temp-Dew spread
Ceiling500 ft
Temp19°C
Dew Point18°C (94% RH)
AAT17.8°C
QNH1013 hPa
Raw Report
KLBO 210635Z AUTO 27011KT 5SM RA OVC005 19/18 A2990 RMK AO2=

Extra information for KLBO:More info

Social comments